South Ryegate, VT (05069)

4:07 AM EST on March 05, 2015 (GMT -0500)
Barnet School | Change Station
CLOSE
Current Station
Personal Weather Station
Location: Barnet, VT
Elevation: 728 ft
Nearby Weather Stations

Elev 728 ft 44.31 °N, 72.08 °W | Updated 1 minute ago

Partly Cloudy
Partly Cloudy
23.4 °F
Feels Like 23 °F
N
2.0
Wind Variable Wind from ENE
Gusts 2.0 mph

Today
High -- | Low -- °F
--% Chance of Precip.
Yesterday
High -- | Low -- °F
Precip. -- in
6:19 AM 5:41 PM
Full, 100% visible
Pressure 29.98 in
Visibility 10.0 miles
Clouds Overcast 6500 ft
Windchill 23 °F
Dew Point 9 °F
Humidity 53%
Rainfall in
Snow Depth Not available.
UV 0 out of 12
Pollen .40 out of 12
Air Quality Not available.
Flu Activity Not available.
METAR KMPV 050851Z AUTO 31010G21KT 10SM OVC065 M07/M17 A2993 RMK AO2 PRESRR SLP152 T10671172 53019

More Conditions Fewer Conditions

Pressure 29.98 in
Visibility 10.0 miles
Clouds Overcast 6500 ft
Windchill 23 °F
Dew Point 9 °F
Humidity 53%
Rainfall in
Snow Depth Not available.
UV 0 out of 12
Pollen .40 out of 12
Air Quality Not available.
Flu Activity Not available.
METAR KMPV 050851Z AUTO 31010G21KT 10SM OVC065 M07/M17 A2993 RMK AO2 PRESRR SLP152 T10671172 53019

More Conditions Fewer Conditions

10-Day Weather Forecast

Almanac

Astronomy

Mar. 05, 2015 Rise Set
Actual Time
Civil Twilight
Nautical Twilight
Astronomical Twilight
Moon
Length of Visible Light
Length of Day
Tomorrow will be .
, % of the Moon is Illuminated

Today's Extremes

State Highs State Lows

Community

WunderPhotos

Upload Photos

1,802,704 photos uploaded!

WunderBlogs® & News

Nearby

Air Quality

  Air Quality AQ Index Pollutant
Not available.

Snow Depth

Station Depth Elevation

Earthquake Activity

City Distance Mag. Time & Date
Minimum magnitude displayed is 2.5.

Coastal Water Temperatures

Place Temperature

Nearby Weather Stations